CheckWX is a tool to help pilots better visualize weather data.  It is not intended as a substitute for an official pre-flight weather briefing.

20:13:11 UTC

KSTJ METAR
Rosecrans Memorial Airport
St Joseph, Missouri, USA
Current

20 mins ago

KSTJ 231953Z 06003KT 10SM OVC022 13/09 A3009 RMK AO2 SLP187 T01330089
Observed
Apr-23 @ 19:53 UTC
Wind
  • 060° at 3 KTS
Visibility
10 SM
Flight Rules
MVFR
Cloud Levels
  • Overcast at 2,200' AGL
Temperature
13°C / 55°F
Dewpoint
C / 48°F
Humidity
77%
Altimeter
30.09" Hg
Pressure
1018.92 hPa
Previous

1 hour ago

KSTJ 231853Z 02004KT 10SM OVC020 13/08 A3009 RMK AO2 SLP188 T01280083
Observed
Apr-23 @ 18:53 UTC
Wind
  • 020° at 4 KTS
Visibility
10 SM
Flight Rules
MVFR
Cloud Levels
  • Overcast at 2,000' AGL
Temperature
13°C / 55°F
Dewpoint
C / 46°F
Humidity
72%
Altimeter
30.09" Hg
Pressure
1018.92 hPa
Previous

2 hours ago

KSTJ 231753Z 00000KT 10SM OVC020 12/08 A3011 RMK AO2 SLP197 T01170083 10122 20094 58002
Observed
Apr-23 @ 17:53 UTC
Visibility
10 SM
Flight Rules
MVFR
Cloud Levels
  • Overcast at 2,000' AGL
Temperature
12°C / 54°F
Dewpoint
C / 46°F
Humidity
77%
Altimeter
30.11" Hg
Pressure
1019.62 hPa